Time;durP1;ratioP1;P1;durP2;ratioP2;P2;SDS_P1;SDS_P2;PMS_P1;PMS_P2;Temp;Humidity;BMP_temperature;BMP_pressure;BME280_temperature;BME280_humidity;BME280_pressure;Samples;Min_cycle;Max_cycle;Signal;HPM_P1;HPM_P2
2022/07/29 00:00:22;;;;;;;7.53;2.45;;;22.80;73.00;;;;;;6234060;28;20042;-81
2022/07/29 00:03:24;;;;;;;2.65;2.13;;;22.70;73.20;;;;;;6248475;28;20416;-81
2022/07/29 00:06:26;;;;;;;2.60;1.60;;;22.80;73.70;;;;;;6250831;28;20491;-81
2022/07/29 00:09:28;;;;;;;3.97;2.03;;;22.70;73.50;;;;;;6250521;28;20069;-82
2022/07/29 00:12:31;;;;;;;3.30;2.00;;;22.70;73.70;;;;;;6250699;28;20517;-82
2022/07/29 00:15:33;;;;;;;3.30;2.08;;;22.60;74.00;;;;;;6251325;28;20057;-81
2022/07/29 00:18:34;;;;;;;6.00;2.05;;;22.50;74.50;;;;;;6250597;28;20060;-82
2022/07/29 00:21:36;;;;;;;3.78;2.05;;;22.50;74.80;;;;;;6253053;28;20049;-80
2022/07/29 00:24:38;;;;;;;6.90;2.20;;;22.50;74.80;;;;;;6255291;28;20047;-80
2022/07/29 00:27:41;;;;;;;4.93;2.05;;;22.40;75.40;;;;;;6255779;28;20045;-80
2022/07/29 00:30:43;;;;;;;3.33;2.25;;;22.40;75.50;;;;;;6242683;28;20153;-80
2022/07/29 00:33:45;;;;;;;6.90;2.40;;;22.30;76.40;;;;;;6250424;28;20065;-80
2022/07/29 00:36:46;;;;;;;5.40;2.15;;;22.20;77.30;;;;;;6226514;28;20041;-82
2022/07/29 00:39:47;;;;;;;5.97;2.08;;;22.10;77.30;;;;;;6224426;28;20052;-81
2022/07/29 00:42:52;;;;;;;8.45;2.05;;;22.10;77.90;;;;;;6224288;28;20504;-79
2022/07/29 00:45:53;;;;;;;4.72;1.83;;;22.00;78.10;;;;;;6215105;28;20041;-81
2022/07/29 00:48:55;;;;;;;3.88;2.03;;;22.00;78.30;;;;;;6232307;28;20495;-81
2022/07/29 00:51:57;;;;;;;2.95;2.00;;;21.90;78.70;;;;;;6233644;28;20045;-80
2022/07/29 00:54:59;;;;;;;16.98;2.75;;;21.80;79.20;;;;;;6225375;28;20049;-79
2022/07/29 00:58:03;;;;;;;8.63;2.45;;;21.80;80.10;;;;;;6196013;28;20046;-79
2022/07/29 01:01:05;;;;;;;5.72;2.88;;;21.70;80.60;;;;;;6224345;28;20048;-80
2022/07/29 01:04:07;;;;;;;3.10;2.28;;;21.70;80.70;;;;;;6228602;28;20053;-80
2022/07/29 01:07:09;;;;;;;4.18;1.90;;;21.60;81.10;;;;;;6224422;28;20492;-79
2022/07/29 01:10:13;;;;;;;6.85;2.00;;;21.60;81.40;;;;;;6225987;28;20050;-79
2022/07/29 01:13:17;;;;;;;3.75;1.83;;;21.50;81.80;;;;;;6225470;28;20049;-80
2022/07/29 01:16:25;;;;;;;2.78;2.17;;;21.40;82.90;;;;;;6225147;28;20440;-80
2022/07/29 01:19:49;;;;;;;4.35;2.20;;;21.40;82.70;;;;;;6226417;28;20056;-80
2022/07/29 01:23:17;;;;;;;5.47;2.65;;;21.40;83.00;;;;;;6225868;28;20100;-80
2022/07/29 01:26:46;;;;;;;3.65;2.75;;;21.30;83.40;;;;;;6225711;28;20042;-80
2022/07/29 01:29:54;;;;;;;2.75;2.30;;;21.20;84.00;;;;;;6225675;28;20042;-80
2022/07/29 01:33:02;;;;;;;3.70;2.22;;;21.20;84.30;;;;;;6227094;28;20045;-81
2022/07/29 01:36:11;;;;;;;4.10;2.53;;;21.10;84.60;;;;;;6228948;28;20042;-81
2022/07/29 01:39:19;;;;;;;5.55;2.40;;;21.00;84.70;;;;;;6226172;28;20054;-80
2022/07/29 01:42:27;;;;;;;2.13;1.83;;;21.00;84.90;;;;;;6226854;28;20056;-80
2022/07/29 01:45:38;;;;;;;4.50;2.97;;;21.00;85.50;;;;;;6226608;28;20054;-80
2022/07/29 01:48:43;;;;;;;4.90;2.53;;;20.90;85.70;;;;;;6226099;28;20041;-80
2022/07/29 01:51:50;;;;;;;4.13;2.75;;;20.90;86.20;;;;;;6229247;28;20054;-80
2022/07/29 01:54:56;;;;;;;3.20;2.37;;;20.80;86.50;;;;;;6223244;28;20411;-81
2022/07/29 01:57:59;;;;;;;3.42;2.60;;;20.80;86.80;;;;;;6223005;28;20113;-81
2022/07/29 02:01:03;;;;;;;4.05;2.72;;;20.80;87.20;;;;;;6222445;28;20538;-81
2022/07/29 02:04:09;;;;;;;3.90;2.20;;;20.80;87.50;;;;;;6222741;28;20551;-79
2022/07/29 02:07:15;;;;;;;2.80;2.20;;;20.80;87.50;;;;;;6227866;28;20105;-79
2022/07/29 02:10:19;;;;;;;3.38;2.60;;;20.80;87.60;;;;;;6227062;28;20050;-80
2022/07/29 02:13:24;;;;;;;6.18;3.00;;;20.70;88.10;;;;;;6226777;28;20057;-79
2022/07/29 02:16:29;;;;;;;4.03;2.42;;;20.70;88.10;;;;;;6225809;28;20048;-79
2022/07/29 02:19:33;;;;;;;8.27;2.75;;;20.70;88.30;;;;;;6227243;28;20050;-79
2022/07/29 02:22:39;;;;;;;6.93;2.38;;;20.70;88.30;;;;;;6227181;28;20050;-79
2022/07/29 02:25:43;;;;;;;2.95;2.38;;;20.70;88.60;;;;;;6226712;28;20045;-78
2022/07/29 02:28:46;;;;;;;6.25;2.70;;;20.60;88.80;;;;;;6223946;28;20526;-78
2022/07/29 02:31:51;;;;;;;3.67;2.10;;;20.50;89.20;;;;;;6224914;28;20057;-80
2022/07/29 02:34:54;;;;;;;8.30;3.35;;;20.50;89.60;;;;;;6224693;28;20393;-78
2022/07/29 02:41:19;;;;;;;5.40;2.97;;;20.40;90.20;;;;;;6227186;28;20046;-81
2022/07/29 02:44:22;;;;;;;3.33;2.28;;;20.30;90.20;;;;;;6227002;28;20068;-80
2022/07/29 02:47:34;;;;;;;5.18;3.05;;;20.20;90.40;;;;;;6227505;28;20418;-81
2022/07/29 02:50:40;;;;;;;4.13;2.63;;;20.20;90.60;;;;;;6226464;28;20046;-80
2022/07/29 02:53:45;;;;;;;6.13;2.78;;;20.10;90.90;;;;;;6228048;28;20046;-80
2022/07/29 02:56:48;;;;;;;3.97;2.83;;;20.10;91.40;;;;;;6231021;28;20057;-81
2022/07/29 02:59:53;;;;;;;4.80;3.17;;;20.10;91.30;;;;;;6228098;28;20510;-81
2022/07/29 03:03:00;;;;;;;4.03;2.92;;;20.00;91.50;;;;;;6231884;28;20060;-81
2022/07/29 03:06:03;;;;;;;5.70;2.72;;;20.00;91.70;;;;;;6231830;28;20046;-81
2022/07/29 03:09:07;;;;;;;4.47;3.03;;;19.90;91.80;;;;;;6232385;28;20052;-80
2022/07/29 03:12:09;;;;;;;4.75;2.63;;;19.80;91.90;;;;;;6233188;28;20053;-80
2022/07/29 03:15:12;;;;;;;5.72;2.92;;;19.90;92.00;;;;;;6254531;23;20050;-77
2022/07/29 03:18:16;;;;;;;5.30;3.00;;;19.80;92.10;;;;;;6225129;28;20671;-77
2022/07/29 03:21:18;;;;;;;6.40;3.67;;;19.80;92.20;;;;;;6225137;28;20061;-77
2022/07/29 03:24:30;;;;;;;5.10;2.70;;;19.80;92.20;;;;;;6225467;28;20103;-77
2022/07/29 03:27:32;;;;;;;6.20;2.85;;;19.80;92.40;;;;;;6225322;28;20483;-77
2022/07/29 03:30:34;;;;;;;3.28;2.55;;;19.80;92.40;;;;;;6224686;28;20049;-77
2022/07/29 03:33:37;;;;;;;5.60;3.08;;;19.80;92.50;;;;;;6224896;28;20042;-78
2022/07/29 03:36:39;;;;;;;5.38;3.38;;;19.80;92.50;;;;;;6224957;28;20053;-78
2022/07/29 03:39:43;;;;;;;6.65;3.67;;;19.70;92.80;;;;;;6225065;28;20537;-77
2022/07/29 03:42:46;;;;;;;7.22;2.80;;;19.70;93.00;;;;;;6224580;28;20414;-78
2022/07/29 03:45:52;;;;;;;9.23;3.55;;;19.70;93.10;;;;;;6224559;28;20054;-78
2022/07/29 03:48:59;;;;;;;5.57;3.60;;;19.70;93.20;;;;;;6224486;28;20049;-78
2022/07/29 03:52:01;;;;;;;4.47;3.00;;;19.60;93.30;;;;;;6224819;28;20058;-78
2022/07/29 03:55:04;;;;;;;6.00;3.40;;;19.70;93.30;;;;;;6224547;28;20053;-78
2022/07/29 03:58:07;;;;;;;5.60;3.60;;;19.70;93.40;;;;;;6224333;28;20042;-78
2022/07/29 04:01:10;;;;;;;4.78;2.92;;;19.70;93.40;;;;;;6224233;28;20128;-78
2022/07/29 04:04:13;;;;;;;3.95;2.88;;;19.80;93.50;;;;;;6224204;28;20437;-78
2022/07/29 04:07:16;;;;;;;6.32;2.58;;;19.70;93.50;;;;;;6224879;28;20056;-77
2022/07/29 04:10:18;;;;;;;7.00;3.53;;;19.70;93.60;;;;;;6223871;28;20108;-78
2022/07/29 04:13:20;;;;;;;11.57;3.13;;;19.70;93.60;;;;;;6223874;28;20045;-78
2022/07/29 04:16:22;;;;;;;7.55;4.00;;;19.70;93.70;;;;;;6223582;28;20041;-78
2022/07/29 04:19:25;;;;;;;5.10;3.08;;;19.60;93.70;;;;;;6224095;28;20045;-78
2022/07/29 04:22:27;;;;;;;7.22;3.08;;;19.60;93.80;;;;;;6223625;28;20160;-78
2022/07/29 04:25:28;;;;;;;4.15;3.03;;;19.60;93.80;;;;;;6223750;28;20046;-78
2022/07/29 04:28:30;;;;;;;3.92;3.08;;;19.60;93.80;;;;;;6223398;28;20045;-78
2022/07/29 04:31:32;;;;;;;5.50;3.55;;;19.60;93.90;;;;;;6223924;28;20065;-79
2022/07/29 04:34:35;;;;;;;3.47;3.17;;;19.60;94.00;;;;;;6223462;28;20527;-77
2022/07/29 04:37:37;;;;;;;6.18;3.28;;;19.70;94.20;;;;;;6223479;28;20042;-78
2022/07/29 04:40:39;;;;;;;5.60;3.20;;;19.70;94.30;;;;;;6223133;28;20297;-78
2022/07/29 04:43:40;;;;;;;7.03;4.20;;;19.80;94.20;;;;;;6224082;28;20054;-77
2022/07/29 04:46:42;;;;;;;7.05;3.08;;;19.80;94.10;;;;;;6222834;28;20057;-77
2022/07/29 04:49:45;;;;;;;8.82;3.40;;;19.90;94.00;;;;;;6223205;28;20057;-78
2022/07/29 04:52:47;;;;;;;8.57;3.08;;;20.00;93.80;;;;;;6223207;28;20042;-78
2022/07/29 04:55:48;;;;;;;6.43;3.00;;;20.10;93.80;;;;;;6223288;28;20101;-78
2022/07/29 04:58:50;;;;;;;3.83;3.13;;;20.20;93.60;;;;;;6222872;28;20046;-77
2022/07/29 05:01:52;;;;;;;5.20;3.08;;;20.30;93.40;;;;;;6222569;28;20053;-78
2022/07/29 05:04:55;;;;;;;4.63;2.97;;;20.40;93.20;;;;;;6223098;28;20053;-78
2022/07/29 05:07:57;;;;;;;5.10;3.50;;;20.50;93.00;;;;;;6222643;28;20054;-78
2022/07/29 05:10:58;;;;;;;9.18;3.63;;;20.60;92.70;;;;;;6222818;28;20503;-78
2022/07/29 05:14:00;;;;;;;7.93;3.05;;;20.80;92.50;;;;;;6222586;28;20050;-78
2022/07/29 05:17:02;;;;;;;5.78;3.08;;;20.90;92.20;;;;;;6222443;28;20042;-78
2022/07/29 05:20:07;;;;;;;5.68;3.22;;;21.10;91.90;;;;;;6222170;28;20060;-77
2022/07/29 05:23:08;;;;;;;7.93;2.58;;;21.20;91.70;;;;;;6222160;28;20064;-77
2022/07/29 05:26:10;;;;;;;6.15;2.92;;;21.50;91.20;;;;;;6222227;28;20050;-80
2022/07/29 05:29:12;;;;;;;6.72;3.05;;;21.80;90.40;;;;;;6222587;28;20052;-79
2022/07/29 05:32:14;;;;;;;4.40;2.30;;;22.30;88.30;;;;;;6222340;28;20054;-77
2022/07/29 05:35:17;;;;;;;4.85;2.42;;;23.00;84.60;;;;;;6222504;28;20546;-78
2022/07/29 05:38:19;;;;;;;6.72;2.50;;;23.80;81.00;;;;;;6222494;28;20052;-77
2022/07/29 05:41:21;;;;;;;3.75;2.75;;;24.80;77.30;;;;;;6222189;28;20050;-78
2022/07/29 05:44:22;;;;;;;4.65;2.53;;;25.90;73.10;;;;;;6222950;28;20361;-79
2022/07/29 05:47:25;;;;;;;5.07;2.60;;;26.80;69.10;;;;;;6225130;28;20052;-79
2022/07/29 05:50:28;;;;;;;3.70;2.75;;;26.60;68.10;;;;;;6222890;28;20053;-79
2022/07/29 05:53:29;;;;;;;6.50;2.70;;;26.50;68.30;;;;;;6222052;28;20054;-79
2022/07/29 05:56:31;;;;;;;5.80;2.45;;;26.90;68.10;;;;;;6222101;28;20057;-79
2022/07/29 05:59:36;;;;;;;5.40;3.00;;;28.60;64.10;;;;;;6222471;28;20508;-77
2022/07/29 06:02:38;;;;;;;8.32;3.20;;;30.30;58.20;;;;;;6221719;28;20053;-78
2022/07/29 06:05:41;;;;;;;4.18;2.60;;;31.60;53.70;;;;;;6222110;28;20054;-80
2022/07/29 06:08:43;;;;;;;5.65;2.30;;;32.50;51.50;;;;;;6222380;28;20122;-78
2022/07/29 06:11:44;;;;;;;2.72;2.28;;;33.40;48.90;;;;;;6222759;28;20054;-79
2022/07/29 06:14:46;;;;;;;5.60;2.22;;;33.10;47.00;;;;;;6222199;28;20049;-80
2022/07/29 06:17:48;;;;;;;8.00;1.83;;;31.70;49.50;;;;;;6221712;28;20049;-79
2022/07/29 06:20:52;;;;;;;7.78;2.50;;;31.70;49.80;;;;;;6222176;28;20046;-80
2022/07/29 06:23:53;;;;;;;4.90;2.10;;;31.60;49.40;;;;;;6222475;28;20444;-77
2022/07/29 06:26:55;;;;;;;5.65;2.25;;;30.50;50.30;;;;;;6221748;28;20050;-78
2022/07/29 06:29:57;;;;;;;4.80;2.33;;;29.40;52.80;;;;;;6221454;28;20056;-77
2022/07/29 06:33:00;;;;;;;5.07;2.10;;;28.60;54.60;;;;;;6221969;28;20046;-78
2022/07/29 06:36:04;;;;;;;3.80;2.42;;;28.30;56.00;;;;;;6225555;28;20108;-77
2022/07/29 06:39:07;;;;;;;8.13;2.58;;;28.90;54.90;;;;;;6227185;28;20057;-77
2022/07/29 06:42:09;;;;;;;6.97;2.10;;;29.80;52.70;;;;;;6226092;28;20061;-79
2022/07/29 06:45:11;;;;;;;5.43;1.92;;;29.90;52.00;;;;;;6226417;28;20049;-78
2022/07/29 06:48:13;;;;;;;4.90;2.00;;;29.70;51.70;;;;;;6226434;28;20052;-78
2022/07/29 06:51:17;;;;;;;4.95;2.05;;;29.60;51.80;;;;;;6226384;28;20046;-79
2022/07/29 06:54:19;;;;;;;8.18;1.95;;;29.90;51.30;;;;;;6226604;28;20058;-78
2022/07/29 06:57:20;;;;;;;2.47;1.45;;;31.10;49.20;;;;;;6226393;28;20073;-79
2022/07/29 07:00:22;;;;;;;9.45;3.50;;;33.20;45.60;;;;;;6226842;28;20050;-80
2022/07/29 07:03:24;;;;;;;6.72;1.73;;;34.90;43.00;;;;;;6226960;28;20057;-79
2022/07/29 07:06:27;;;;;;;2.72;1.20;;;36.60;40.20;;;;;;6227033;28;20053;-80
2022/07/29 07:09:29;;;;;;;7.38;2.97;;;37.70;38.50;;;;;;6228737;28;20046;-79
2022/07/29 07:12:31;;;;;;;3.78;1.55;;;39.00;36.90;;;;;;6228221;28;20057;-80
2022/07/29 07:15:32;;;;;;;3.60;1.90;;;39.70;35.70;;;;;;6228630;28;20426;-80
2022/07/29 07:18:34;;;;;;;1.95;1.58;;;39.20;35.50;;;;;;6227694;28;20569;-79
2022/07/29 07:21:37;;;;;;;4.13;1.98;;;39.20;35.40;;;;;;6228334;28;20053;-77
2022/07/29 07:24:39;;;;;;;6.32;2.00;;;39.20;35.60;;;;;;6226911;28;20052;-80
2022/07/29 07:27:41;;;;;;;6.53;1.55;;;39.80;35.60;;;;;;6226933;28;20058;-78
2022/07/29 07:30:43;;;;;;;4.55;1.50;;;39.70;34.30;;;;;;6225238;28;20050;-79
2022/07/29 07:33:45;;;;;;;9.20;1.70;;;39.50;34.90;;;;;;6225936;28;20057;-79
2022/07/29 07:36:48;;;;;;;2.60;1.30;;;40.10;34.60;;;;;;6226016;28;20048;-80
2022/07/29 07:39:49;;;;;;;7.00;1.40;;;41.50;33.20;;;;;;6226274;28;20046;-79
2022/07/29 07:42:51;;;;;;;4.00;1.23;;;41.50;32.70;;;;;;6225566;28;20050;-78
2022/07/29 07:45:53;;;;;;;5.00;1.48;;;39.80;33.60;;;;;;6197119;28;20058;-79
2022/07/29 07:48:54;;;;;;;2.10;1.40;;;38.30;35.60;;;;;;6223496;28;20046;-81
2022/07/29 07:51:58;;;;;;;3.42;1.52;;;39.20;34.50;;;;;;6220720;28;20072;-77
2022/07/29 07:54:59;;;;;;;4.15;1.52;;;38.40;34.60;;;;;;6227561;28;20054;-77
2022/07/29 07:58:01;;;;;;;6.28;1.45;;;36.70;36.50;;;;;;6224070;28;20050;-78
2022/07/29 08:01:03;;;;;;;4.10;1.45;;;35.40;38.00;;;;;;6233296;28;20053;-78
2022/07/29 08:04:05;;;;;;;6.68;1.58;;;34.30;39.00;;;;;;6249386;28;20064;-80
2022/07/29 08:07:09;;;;;;;4.82;1.20;;;33.50;40.20;;;;;;6249542;28;20053;-77
2022/07/29 08:10:11;;;;;;;2.60;1.30;;;32.60;41.10;;;;;;6248542;28;20088;-78
2022/07/29 08:13:12;;;;;;;6.18;1.52;;;32.00;41.70;;;;;;6248946;28;20140;-78
2022/07/29 08:16:15;;;;;;;1.80;1.00;;;31.90;42.40;;;;;;6248473;28;20049;-79
2022/07/29 08:19:17;;;;;;;3.47;1.10;;;31.90;42.00;;;;;;6248790;28;20053;-77
2022/07/29 08:22:20;;;;;;;2.10;1.13;;;31.80;42.40;;;;;;6199648;28;20049;-77
2022/07/29 08:25:22;;;;;;;7.00;1.70;;;33.40;41.10;;;;;;6211588;28;20404;-79
2022/07/29 08:28:24;;;;;;;3.60;1.10;;;36.10;37.80;;;;;;6222679;28;20050;-78
2022/07/29 08:31:26;;;;;;;5.05;1.15;;;37.90;35.60;;;;;;6209215;28;20054;-79
2022/07/29 08:34:28;;;;;;;2.15;1.00;;;37.20;35.30;;;;;;6199832;28;20046;-79
2022/07/29 08:37:31;;;;;;;2.75;1.30;;;35.60;36.70;;;;;;6199384;28;20056;-79
2022/07/29 08:40:33;;;;;;;3.17;1.13;;;34.00;38.70;;;;;;6198735;28;20053;-78
2022/07/29 08:43:37;;;;;;;7.55;1.60;;;32.90;40.50;;;;;;6199156;28;20058;-78
2022/07/29 08:46:39;;;;;;;5.95;1.10;;;32.20;41.20;;;;;;6199271;28;20054;-78
2022/07/29 08:49:41;;;;;;;5.97;1.55;;;31.80;42.20;;;;;;6199226;28;20054;-78
2022/07/29 08:52:44;;;;;;;6.18;1.38;;;31.60;42.60;;;;;;6215182;28;20042;-79
2022/07/29 08:55:48;;;;;;;5.15;1.50;;;31.30;42.80;;;;;;6223810;28;20431;-78
2022/07/29 08:58:50;;;;;;;3.47;1.65;;;30.90;42.80;;;;;;6222935;28;20053;-78
2022/07/29 09:01:53;;;;;;;3.08;1.58;;;30.60;43.80;;;;;;6225066;28;20506;-78
2022/07/29 09:04:57;;;;;;;5.45;1.20;;;30.60;43.70;;;;;;6224900;28;20400;-79
2022/07/29 09:08:01;;;;;;;8.93;1.17;;;30.70;43.90;;;;;;6225113;28;20058;-78
2022/07/29 09:11:04;;;;;;;4.55;1.20;;;30.90;43.40;;;;;;6224901;28;20050;-78
2022/07/29 09:14:05;;;;;;;3.65;1.00;;;31.00;42.70;;;;;;6224853;28;20049;-79
2022/07/29 09:17:08;;;;;;;1.92;1.23;;;31.00;43.20;;;;;;6224183;28;20041;-78
2022/07/29 09:20:11;;;;;;;3.85;1.27;;;31.10;42.90;;;;;;6229664;28;20046;-78
2022/07/29 09:23:15;;;;;;;4.47;1.45;;;31.20;43.50;;;;;;6243070;28;20055;-79
2022/07/29 09:26:16;;;;;;;5.32;1.15;;;31.20;43.10;;;;;;6248722;28;20048;-79
2022/07/29 09:29:20;;;;;;;4.03;1.08;;;31.20;43.00;;;;;;6248823;28;20045;-79
2022/07/29 09:32:22;;;;;;;5.00;1.42;;;31.40;42.90;;;;;;6221629;28;20057;-79
2022/07/29 09:35:25;;;;;;;3.72;1.20;;;31.60;42.60;;;;;;6228974;28;20056;-77
2022/07/29 09:38:29;;;;;;;12.50;1.70;;;31.90;42.50;;;;;;6242345;28;20042;-77
2022/07/29 09:41:44;;;;;;;3.13;1.20;;;32.30;42.20;;;;;;6249263;28;20041;-78
2022/07/29 09:44:47;;;;;;;5.75;1.95;;;32.60;41.60;;;;;;6247842;28;20125;-78
2022/07/29 09:47:50;;;;;;;10.10;1.30;;;32.80;40.90;;;;;;6247837;28;20049;-78
2022/07/29 09:50:53;;;;;;;3.17;1.15;;;32.90;40.90;;;;;;6246989;28;20050;-79
2022/07/29 09:53:56;;;;;;;6.00;1.20;;;33.10;40.90;;;;;;6247563;28;20049;-78
2022/07/29 09:56:58;;;;;;;4.43;1.10;;;33.20;40.50;;;;;;6247157;28;20047;-79
2022/07/29 10:00:05;;;;;;;2.83;1.15;;;33.40;40.30;;;;;;6248612;28;20042;-78
2022/07/29 10:03:07;;;;;;;5.20;1.25;;;33.60;39.90;;;;;;6231977;28;20104;-78
2022/07/29 10:06:10;;;;;;;6.47;1.70;;;33.50;39.80;;;;;;6230385;28;20057;-78
2022/07/29 10:09:13;;;;;;;6.78;1.20;;;33.70;40.00;;;;;;6242680;28;20453;-79
2022/07/29 10:12:15;;;;;;;4.20;0.90;;;34.40;39.50;;;;;;6247110;28;20054;-79
2022/07/29 10:15:17;;;;;;;3.85;1.10;;;35.20;38.00;;;;;;6247881;28;20507;-77
2022/07/29 10:18:19;;;;;;;2.05;0.90;;;35.40;37.40;;;;;;6246596;28;20045;-78
2022/07/29 10:21:22;;;;;;;3.85;1.02;;;35.40;37.50;;;;;;6246640;28;20046;-78
2022/07/29 10:24:26;;;;;;;11.93;1.58;;;35.30;37.20;;;;;;6247113;28;20062;-78
2022/07/29 10:27:28;;;;;;;4.28;0.90;;;35.10;37.20;;;;;;6247377;28;20061;-78
2022/07/29 10:30:30;;;;;;;4.93;1.10;;;34.90;37.30;;;;;;6246151;28;20041;-78
2022/07/29 10:33:46;;;;;;;2.38;0.60;;;34.60;37.00;;;;;;6217682;28;20048;-78
2022/07/29 10:36:57;;;;;;;2.40;0.95;;;34.60;37.40;;;;;;6231997;28;20064;-78
2022/07/29 10:43:30;;;;;;;6.20;1.02;;;34.60;36.20;;;;;;6246755;28;20110;-78
2022/07/29 10:46:36;;;;;;;2.00;0.77;;;34.70;36.60;;;;;;6248390;28;20422;-79
2022/07/29 10:49:38;;;;;;;9.48;1.02;;;34.70;35.90;;;;;;6248439;28;20045;-78
2022/07/29 10:52:57;;;;;;;4.00;0.93;;;34.60;36.20;;;;;;6247969;28;20041;-79
2022/07/29 10:56:00;;;;;;;2.92;1.00;;;34.80;36.50;;;;;;6246272;28;20045;-77
2022/07/29 10:59:27;;;;;;;5.93;1.17;;;35.20;35.90;;;;;;6246829;28;20053;-78
2022/07/29 11:02:48;;;;;;;2.65;1.33;;;35.40;35.50;;;;;;6231849;28;20061;-77
2022/07/29 11:05:54;;;;;;;6.53;0.80;;;35.50;35.00;;;;;;6242290;28;20052;-79
2022/07/29 11:09:25;;;;;;;8.25;1.27;;;35.80;34.20;;;;;;6241960;28;20061;-77
2022/07/29 11:12:50;;;;;;;2.90;0.80;;;36.00;34.00;;;;;;6171158;28;20047;-79
2022/07/29 11:15:57;;;;;;;2.83;0.55;;;36.00;34.30;;;;;;6246462;28;20053;-78
2022/07/29 11:19:21;;;;;;;1.65;0.60;;;36.20;33.40;;;;;;6246546;28;20046;-77
2022/07/29 11:22:34;;;;;;;3.97;1.02;;;36.40;32.50;;;;;;6248284;28;20056;-78
2022/07/29 11:25:36;;;;;;;5.90;1.52;;;36.50;31.90;;;;;;6250458;28;20096;-77
2022/07/29 11:28:52;;;;;;;3.58;0.50;;;36.70;31.90;;;;;;6250421;28;20056;-76
2022/07/29 11:32:08;;;;;;;1.88;0.43;;;36.80;31.20;;;;;;6248926;28;20057;-76
2022/07/29 11:35:17;;;;;;;1.15;0.45;;;36.60;31.30;;;;;;6190050;28;20050;-78
2022/07/29 11:38:26;;;;;;;3.70;0.80;;;36.20;31.30;;;;;;6220454;28;20050;-78
2022/07/29 11:41:29;;;;;;;3.13;0.98;;;36.30;32.00;;;;;;6237897;28;20419;-78
2022/07/29 11:45:05;;;;;;;5.50;0.77;;;36.60;32.30;;;;;;6249855;28;20518;-79
2022/07/29 11:48:15;;;;;;;11.18;1.25;;;36.80;31.00;;;;;;6251621;28;20691;-79
2022/07/29 11:51:17;;;;;;;2.95;0.60;;;36.60;31.30;;;;;;6259242;28;20050;-77
2022/07/29 11:54:26;;;;;;;3.88;0.77;;;36.20;32.10;;;;;;6256593;28;20049;-77
2022/07/29 11:57:29;;;;;;;2.97;0.70;;;35.90;33.10;;;;;;6250901;28;20050;-78
2022/07/29 12:00:33;;;;;;;2.00;0.40;;;35.80;32.70;;;;;;6257842;28;20333;-79
2022/07/29 12:03:36;;;;;;;1.58;0.63;;;35.80;32.70;;;;;;6258757;28;20107;-79
2022/07/29 12:06:38;;;;;;;2.00;0.63;;;35.80;33.00;;;;;;6244983;28;20105;-78
2022/07/29 12:09:40;;;;;;;1.20;0.50;;;35.60;33.50;;;;;;6218164;28;20412;-74
2022/07/29 12:12:42;;;;;;;2.10;0.80;;;35.50;33.90;;;;;;6209720;28;20037;-81
2022/07/29 12:15:53;;;;;;;4.07;0.88;;;35.30;34.00;;;;;;6231639;28;20519;-78
2022/07/29 12:19:00;;;;;;;1.52;0.47;;;35.10;34.40;;;;;;6232144;28;20050;-78
2022/07/29 12:22:02;;;;;;;;;;;34.90;34.30;;;;;;6233203;28;20046;-79
2022/07/29 12:25:06;;;;;;;4.00;0.75;;;34.80;34.30;;;;;;6231850;28;20379;-78
2022/07/29 12:28:10;;;;;;;2.97;0.60;;;34.70;34.70;;;;;;6233148;28;20058;-78
2022/07/29 12:31:15;;;;;;;2.67;0.70;;;34.40;34.90;;;;;;6231580;28;20049;-78
2022/07/29 12:34:18;;;;;;;3.28;0.70;;;34.30;35.40;;;;;;6227236;28;20065;-78
2022/07/29 12:37:20;;;;;;;2.35;0.77;;;34.30;35.20;;;;;;6237232;28;20061;-79
2022/07/29 12:40:22;;;;;;;4.60;1.05;;;34.40;35.00;;;;;;6227778;28;20049;-78
2022/07/29 12:43:25;;;;;;;3.05;1.08;;;34.60;34.70;;;;;;6204232;28;20050;-80
2022/07/29 12:46:27;;;;;;;3.55;0.63;;;34.40;34.20;;;;;;6225277;28;20057;-78
2022/07/29 12:49:30;;;;;;;5.18;0.85;;;34.40;34.50;;;;;;6233562;28;20048;-77
2022/07/29 12:52:34;;;;;;;2.47;0.32;;;34.30;34.40;;;;;;6230169;28;20534;-79
2022/07/29 12:55:44;;;;;;;2.00;0.75;;;34.10;34.70;;;;;;6234191;28;20049;-77
2022/07/29 12:58:45;;;;;;;2.00;0.50;;;33.90;35.10;;;;;;6234759;28;20045;-78
2022/07/29 13:01:48;;;;;;;1.75;0.52;;;33.80;35.00;;;;;;6233893;28;20054;-78
2022/07/29 13:04:58;;;;;;;3.90;0.88;;;33.60;35.40;;;;;;6232057;28;20050;-77
2022/07/29 13:08:11;;;;;;;6.80;1.13;;;33.40;35.60;;;;;;6233780;28;20427;-79
2022/07/29 13:11:29;;;;;;;5.30;0.90;;;33.40;36.10;;;;;;6253849;28;20049;-78
2022/07/29 13:14:33;;;;;;;3.97;0.70;;;33.40;35.80;;;;;;6254348;28;20052;-79
2022/07/29 13:17:42;;;;;;;6.10;0.90;;;33.40;35.20;;;;;;6254813;28;20049;-77
2022/07/29 13:20:45;;;;;;;6.88;0.68;;;33.20;35.20;;;;;;6255349;28;20124;-78
2022/07/29 13:23:47;;;;;;;3.45;0.82;;;33.20;35.40;;;;;;6254076;28;20060;-78
2022/07/29 13:26:48;;;;;;;2.17;0.55;;;33.00;35.20;;;;;;6253456;28;20051;-80
2022/07/29 13:29:52;;;;;;;0.93;0.47;;;32.90;35.20;;;;;;6253168;28;20045;-79
2022/07/29 13:32:54;;;;;;;4.30;0.60;;;32.90;35.40;;;;;;6252922;28;20048;-78
2022/07/29 13:35:57;;;;;;;5.13;0.60;;;32.80;35.60;;;;;;6226615;28;20153;-79
2022/07/29 13:39:00;;;;;;;4.60;0.65;;;32.80;34.90;;;;;;6186890;28;20443;-77
2022/07/29 13:42:02;;;;;;;3.47;0.73;;;32.70;34.80;;;;;;6198228;28;20056;-78
2022/07/29 13:45:06;;;;;;;4.80;0.73;;;32.60;35.00;;;;;;6205030;28;20056;-78
2022/07/29 13:48:08;;;;;;;8.68;1.23;;;32.70;35.30;;;;;;6205895;28;20050;-77
2022/07/29 13:51:11;;;;;;;4.20;0.68;;;32.70;35.40;;;;;;6202513;28;20046;-78
2022/07/29 13:54:13;;;;;;;1.60;0.60;;;32.70;35.10;;;;;;6209418;28;20054;-78
2022/07/29 13:57:15;;;;;;;4.68;0.70;;;32.60;34.80;;;;;;6205887;28;20052;-79
2022/07/29 14:00:18;;;;;;;2.55;0.80;;;32.50;35.10;;;;;;6207292;28;20422;-79
2022/07/29 14:03:20;;;;;;;4.40;0.85;;;32.50;34.90;;;;;;6206001;28;20046;-78
2022/07/29 14:06:23;;;;;;;6.43;1.10;;;32.60;35.20;;;;;;6225009;28;20057;-79
2022/07/29 14:09:24;;;;;;;2.60;0.45;;;32.60;35.10;;;;;;6233960;28;20418;-78
2022/07/29 14:12:26;;;;;;;2.83;0.63;;;32.80;35.20;;;;;;6213053;28;20050;-77
2022/07/29 14:15:28;;;;;;;10.07;1.13;;;32.90;34.70;;;;;;6193929;28;20046;-78
2022/07/29 14:18:30;;;;;;;6.60;0.80;;;33.10;34.90;;;;;;6206570;28;20526;-79
2022/07/29 14:21:34;;;;;;;4.25;0.70;;;33.10;34.70;;;;;;6206544;28;20047;-78
2022/07/29 14:24:36;;;;;;;7.32;1.13;;;33.30;34.30;;;;;;6206021;28;20046;-78
2022/07/29 14:27:38;;;;;;;4.13;0.40;;;33.40;34.20;;;;;;6204977;28;20050;-78
2022/07/29 14:30:39;;;;;;;1.85;0.88;;;33.40;34.10;;;;;;6204973;28;20049;-79
2022/07/29 14:33:42;;;;;;;1.30;0.45;;;33.30;33.90;;;;;;6211577;28;20042;-76
2022/07/29 14:36:45;;;;;;;3.70;0.57;;;33.30;33.60;;;;;;6223572;28;20046;-79
2022/07/29 14:39:47;;;;;;;4.25;0.63;;;33.30;33.80;;;;;;6205650;28;20119;-79
2022/07/29 14:42:48;;;;;;;3.60;0.50;;;33.30;33.80;;;;;;6205005;28;20042;-79
2022/07/29 14:45:50;;;;;;;3.28;0.52;;;33.30;33.80;;;;;;6204951;28;20108;-79
2022/07/29 14:48:52;;;;;;;4.55;0.90;;;33.40;33.30;;;;;;6203966;28;20053;-78
2022/07/29 14:51:55;;;;;;;6.85;1.23;;;33.40;33.50;;;;;;6203285;28;20054;-79
2022/07/29 14:54:57;;;;;;;1.65;0.63;;;33.40;33.40;;;;;;6196149;28;20054;-79
2022/07/29 14:57:59;;;;;;;6.20;0.80;;;33.40;33.40;;;;;;6219478;28;20054;-79
2022/07/29 15:01:01;;;;;;;7.05;0.80;;;33.50;33.20;;;;;;6207976;28;20042;-80
2022/07/29 15:04:03;;;;;;;1.52;0.40;;;33.60;32.80;;;;;;6207916;28;20046;-80
2022/07/29 15:07:06;;;;;;;0.95;0.40;;;33.50;32.50;;;;;;6232605;28;20054;-81
2022/07/29 15:10:08;;;;;;;3.22;0.30;;;33.40;32.30;;;;;;6257282;28;20392;-78
2022/07/29 15:13:10;;;;;;;1.63;0.55;;;33.40;32.80;;;;;;6258104;28;20054;-80
2022/07/29 15:16:11;;;;;;;1.23;0.40;;;33.50;32.50;;;;;;6256705;28;20056;-79
2022/07/29 15:19:13;;;;;;;2.55;0.40;;;33.60;32.40;;;;;;6256779;28;20056;-79
2022/07/29 15:22:16;;;;;;;5.25;0.70;;;33.50;31.70;;;;;;6256004;28;20506;-79
2022/07/29 15:25:18;;;;;;;0.82;0.40;;;33.30;31.90;;;;;;6257082;28;20064;-80
2022/07/29 15:28:20;;;;;;;3.05;0.50;;;33.30;31.90;;;;;;6256190;28;20056;-79
2022/07/29 15:31:22;;;;;;;1.58;0.60;;;33.10;32.20;;;;;;6255300;28;20048;-79
2022/07/29 15:34:24;;;;;;;2.03;0.75;;;33.10;32.20;;;;;;6243311;28;20058;-79
2022/07/29 15:37:28;;;;;;;1.35;0.52;;;33.20;32.30;;;;;;6195757;28;20141;-77
2022/07/29 15:40:30;;;;;;;7.80;0.57;;;33.20;32.10;;;;;;6195093;28;20050;-79
2022/07/29 15:43:31;;;;;;;5.30;0.65;;;33.40;32.10;;;;;;6201667;28;20046;-79
2022/07/29 15:49:52;;;;;;;3.58;0.73;;;33.60;31.50;;;;;;6182417;28;20102;-79
2022/07/29 15:52:55;;;;;;;4.80;0.52;;;33.60;31.70;;;;;;6182192;28;20058;-80
2022/07/29 15:55:57;;;;;;;1.95;0.68;;;33.50;31.40;;;;;;6182586;28;20047;-80
2022/07/29 15:58:59;;;;;;;7.35;0.52;;;33.50;31.60;;;;;;6182215;28;20051;-79
2022/07/29 16:02:01;;;;;;;5.20;0.63;;;33.50;31.80;;;;;;6185414;28;20059;-79
2022/07/29 16:05:03;;;;;;;1.17;0.50;;;33.40;31.80;;;;;;6201039;28;20572;-78
2022/07/29 16:08:06;;;;;;;3.17;0.85;;;33.30;31.90;;;;;;6213473;28;20524;-78